Time;durP1;ratioP1;P1;durP2;ratioP2;P2;SDS_P1;SDS_P2;PMS_P1;PMS_P2;Temp;Humidity;BMP_temperature;BMP_pressure;BME280_temperature;BME280_humidity;BME280_pressure;Samples;Min_cycle;Max_cycle;Signal;HPM_P1;HPM_P2
2020/12/09 00:00:53;;;;;;;40.60;28.10;;;4.60;99.90;;;;;;5078970;28;20237;-54
2020/12/09 00:03:18;;;;;;;44.27;30.33;;;4.80;99.90;;;;;;5079966;28;20169;-56
2020/12/09 00:05:45;;;;;;;40.97;31.03;;;4.90;99.90;;;;;;5079662;28;20170;-52
2020/12/09 00:08:11;;;;;;;43.37;32.20;;;5.00;99.90;;;;;;5077385;28;20269;-55
2020/12/09 00:10:37;;;;;;;46.13;30.10;;;5.10;99.90;;;;;;5079657;28;20914;-54
2020/12/09 00:13:03;;;;;;;43.90;30.20;;;5.10;99.90;;;;;;5078963;28;20906;-56
2020/12/09 00:15:29;;;;;;;41.77;29.90;;;5.20;99.90;;;;;;5079999;28;20401;-56
2020/12/09 00:17:55;;;;;;;37.90;27.63;;;5.20;99.90;;;;;;5079138;28;20962;-53
2020/12/09 00:20:20;;;;;;;36.77;27.33;;;5.10;99.90;;;;;;5079555;28;20186;-56
2020/12/09 00:22:46;;;;;;;44.23;29.67;;;4.90;99.90;;;;;;5080370;28;20178;-55
2020/12/09 00:25:11;;;;;;;41.40;28.43;;;5.10;99.90;;;;;;5080971;28;20197;-56
2020/12/09 00:27:37;;;;;;;43.80;30.37;;;4.90;99.90;;;;;;5079446;28;20205;-54
2020/12/09 00:30:08;;;;;;;44.30;31.00;;;4.80;99.90;;;;;;5079591;28;20174;-56
2020/12/09 00:32:34;;;;;;;44.07;30.43;;;4.70;99.90;;;;;;5079026;28;20166;-55
2020/12/09 00:35:01;;;;;;;43.43;30.77;;;4.70;99.90;;;;;;5082981;28;20449;-56
2020/12/09 00:37:27;;;;;;;46.70;30.47;;;4.60;99.90;;;;;;5092548;28;20434;-51
2020/12/09 00:39:52;;;;;;;49.20;32.03;;;4.60;99.90;;;;;;5098660;28;20752;-55
2020/12/09 00:42:18;;;;;;;44.13;28.60;;;4.60;99.90;;;;;;5098302;28;20655;-56
2020/12/09 00:44:43;;;;;;;48.80;31.70;;;4.60;99.90;;;;;;5099586;28;20176;-55
2020/12/09 00:47:09;;;;;;;38.97;27.77;;;4.60;99.90;;;;;;5098659;28;20189;-55
2020/12/09 00:49:57;;;;;;;47.97;32.47;;;4.60;99.90;;;;;;5098408;28;20173;-53
2020/12/09 00:52:20;;;;;;;40.00;28.47;;;4.50;99.90;;;;;;5098369;28;20170;-53
2020/12/09 00:54:46;;;;;;;39.07;28.27;;;4.50;99.90;;;;;;5099266;28;20404;-54
2020/12/09 00:57:12;;;;;;;39.40;27.20;;;4.50;99.90;;;;;;5100410;28;20188;-54
2020/12/09 00:59:37;;;;;;;42.10;28.93;;;4.40;99.90;;;;;;5099345;28;20407;-56
2020/12/09 01:02:03;;;;;;;41.73;29.67;;;4.70;99.90;;;;;;5097943;28;20177;-55
2020/12/09 01:04:28;;;;;;;45.40;30.47;;;4.80;99.90;;;;;;5083878;28;20634;-54
2020/12/09 01:06:54;;;;;;;44.33;32.30;;;4.80;99.90;;;;;;5078189;28;20670;-56
2020/12/09 01:09:19;;;;;;;50.27;33.13;;;4.80;99.90;;;;;;5078117;28;20166;-51
2020/12/09 01:11:45;;;;;;;42.37;29.53;;;4.60;99.90;;;;;;5077146;28;20198;-53
2020/12/09 01:14:10;;;;;;;43.70;27.80;;;4.70;99.90;;;;;;5077993;28;20178;-52
2020/12/09 01:16:36;;;;;;;44.00;30.67;;;4.70;99.90;;;;;;5076940;28;20189;-56
2020/12/09 01:19:02;;;;;;;44.63;31.30;;;4.80;99.90;;;;;;5078486;28;20182;-54
2020/12/09 01:21:31;;;;;;;46.47;31.50;;;4.80;99.90;;;;;;5079034;28;20190;-54
2020/12/09 01:23:57;;;;;;;38.90;28.17;;;4.80;99.90;;;;;;5079790;28;20178;-52
2020/12/09 01:26:23;;;;;;;45.47;30.77;;;4.90;99.90;;;;;;5078341;28;20431;-56
2020/12/09 01:28:48;;;;;;;44.97;30.27;;;4.80;99.90;;;;;;5080979;28;20315;-53
2020/12/09 01:31:19;;;;;;;53.67;33.23;;;4.70;99.90;;;;;;5097907;28;20545;-56
2020/12/09 01:33:46;;;;;;;45.97;32.10;;;4.50;99.90;;;;;;5098031;28;20153;-53
2020/12/09 01:36:12;;;;;;;48.13;32.93;;;4.50;99.90;;;;;;5098285;28;20411;-55
2020/12/09 01:38:37;;;;;;;46.90;32.67;;;4.60;99.90;;;;;;5088106;28;20502;-52
2020/12/09 01:41:03;;;;;;;42.60;31.03;;;4.80;99.90;;;;;;5080071;28;20166;-56
2020/12/09 01:43:29;;;;;;;45.37;31.40;;;4.70;99.90;;;;;;5079106;28;20223;-55
2020/12/09 01:45:54;;;;;;;44.57;31.80;;;4.70;99.90;;;;;;5079341;28;20219;-55
2020/12/09 01:48:20;;;;;;;43.13;28.83;;;4.60;99.90;;;;;;5076730;28;20535;-56
2020/12/09 01:50:46;;;;;;;43.67;30.00;;;4.50;99.90;;;;;;5077971;28;20637;-54
2020/12/09 01:53:11;;;;;;;43.10;29.77;;;4.60;99.90;;;;;;5078035;28;20630;-54
2020/12/09 01:55:37;;;;;;;47.83;32.37;;;4.60;99.90;;;;;;5077972;28;20219;-57
2020/12/09 01:58:03;;;;;;;36.77;27.10;;;4.70;99.90;;;;;;5077577;28;20216;-55
2020/12/09 02:00:28;;;;;;;46.50;31.27;;;4.60;99.90;;;;;;5078180;28;20256;-55
2020/12/09 02:02:54;;;;;;;44.60;30.50;;;4.70;99.90;;;;;;5077423;28;20170;-53
2020/12/09 02:05:19;;;;;;;46.10;30.50;;;4.70;99.90;;;;;;5077576;28;20192;-53
2020/12/09 02:07:45;;;;;;;44.70;30.33;;;4.50;99.90;;;;;;5077503;28;20198;-54
2020/12/09 02:10:14;;;;;;;44.30;30.67;;;4.40;99.90;;;;;;5077496;28;20166;-56
2020/12/09 02:12:40;;;;;;;45.53;30.10;;;4.50;99.90;;;;;;5076933;28;20223;-53
2020/12/09 02:15:07;;;;;;;47.87;31.07;;;4.50;99.90;;;;;;5077140;28;20427;-56
2020/12/09 02:17:33;;;;;;;45.20;30.30;;;4.40;99.90;;;;;;5078192;28;20424;-53
2020/12/09 02:19:58;;;;;;;43.60;30.57;;;4.50;99.90;;;;;;5081255;28;20501;-53
2020/12/09 02:22:24;;;;;;;48.13;31.40;;;4.60;99.90;;;;;;5082002;28;20539;-52
2020/12/09 02:24:49;;;;;;;47.73;33.13;;;4.50;99.90;;;;;;5082148;28;20173;-53
2020/12/09 02:27:15;;;;;;;46.27;30.90;;;4.60;99.90;;;;;;5080506;28;20201;-55
2020/12/09 02:29:41;;;;;;;51.57;33.47;;;4.70;99.90;;;;;;5089923;28;20267;-52
2020/12/09 02:32:06;;;;;;;45.13;30.40;;;4.80;99.90;;;;;;5102108;28;20222;-54
2020/12/09 02:34:32;;;;;;;40.27;29.43;;;4.80;99.90;;;;;;5101798;28;20215;-52
2020/12/09 02:36:57;;;;;;;48.10;32.17;;;4.90;99.90;;;;;;5101820;28;20193;-53
2020/12/09 02:39:32;;;;;;;43.80;29.57;;;5.00;99.90;;;;;;5100515;28;20240;-55
2020/12/09 02:41:58;;;;;;;48.40;33.63;;;5.00;99.90;;;;;;5081582;28;20153;-55
2020/12/09 02:44:24;;;;;;;39.97;29.87;;;5.10;99.90;;;;;;5081340;28;20449;-55
2020/12/09 02:46:49;;;;;;;46.70;32.80;;;5.20;99.90;;;;;;5081165;28;20231;-54
2020/12/09 02:49:15;;;;;;;49.30;31.53;;;5.10;99.90;;;;;;5080662;28;20170;-55
2020/12/09 02:51:40;;;;;;;44.40;30.43;;;5.10;99.90;;;;;;5081414;28;20738;-52
2020/12/09 02:54:06;;;;;;;43.40;30.53;;;5.10;99.90;;;;;;5080939;28;20295;-57
2020/12/09 02:56:31;;;;;;;45.33;30.20;;;5.10;99.90;;;;;;5081265;28;20701;-56
2020/12/09 02:58:57;;;;;;;43.80;30.27;;;5.20;99.90;;;;;;5081774;28;20201;-52
2020/12/09 03:01:23;;;;;;;41.43;28.57;;;5.30;99.90;;;;;;5080876;28;20252;-52
2020/12/09 03:03:48;;;;;;;45.27;30.67;;;5.10;99.90;;;;;;5080393;28;20162;-56
2020/12/09 03:06:16;;;;;;;41.97;29.03;;;4.90;99.90;;;;;;5090864;28;20194;-52
2020/12/09 03:08:41;;;;;;;51.07;33.90;;;4.90;99.90;;;;;;5100843;28;20185;-56
2020/12/09 03:11:07;;;;;;;47.80;34.30;;;4.90;99.90;;;;;;5100612;28;20406;-56
2020/12/09 03:13:33;;;;;;;47.87;31.20;;;4.90;99.90;;;;;;5100712;28;20170;-54
2020/12/09 03:15:58;;;;;;;51.97;34.67;;;5.00;99.90;;;;;;5101838;28;20240;-53
2020/12/09 03:18:24;;;;;;;47.03;32.83;;;4.90;99.90;;;;;;5096808;28;20597;-52
2020/12/09 03:20:49;;;;;;;49.80;30.83;;;5.00;99.90;;;;;;5081477;28;20182;-53
2020/12/09 03:23:15;;;;;;;42.93;30.57;;;5.10;99.90;;;;;;5079724;28;20166;-56
2020/12/09 03:25:40;;;;;;;42.23;31.80;;;5.00;99.90;;;;;;5080318;28;20664;-55
2020/12/09 03:28:06;;;;;;;45.00;31.73;;;5.10;99.90;;;;;;5082173;28;20563;-56
2020/12/09 03:30:31;;;;;;;49.37;34.03;;;5.20;99.90;;;;;;5096031;28;20723;-57
2020/12/09 03:32:57;;;;;;;50.33;35.83;;;5.10;99.90;;;;;;5100674;28;20244;-56
2020/12/09 03:35:22;;;;;;;49.40;34.20;;;5.10;99.90;;;;;;5101340;28;20165;-57
2020/12/09 03:37:48;;;;;;;41.53;28.47;;;5.20;99.90;;;;;;5100572;28;20609;-57
2020/12/09 03:40:14;;;;;;;50.80;33.60;;;5.10;99.90;;;;;;5101813;28;20169;-53
2020/12/09 03:42:39;;;;;;;46.60;34.10;;;5.20;99.90;;;;;;5102370;28;20180;-53
2020/12/09 03:45:05;;;;;;;45.60;31.90;;;5.20;99.90;;;;;;5100311;28;20238;-57
2020/12/09 03:47:30;;;;;;;47.53;31.27;;;5.10;99.90;;;;;;5101180;28;20207;-52
2020/12/09 03:49:56;;;;;;;48.60;30.73;;;5.20;99.90;;;;;;5101816;28;20652;-54
2020/12/09 03:52:21;;;;;;;49.97;35.50;;;5.30;99.90;;;;;;5103228;28;20612;-53
2020/12/09 03:54:47;;;;;;;44.50;32.40;;;5.20;99.90;;;;;;5102071;28;20169;-52
2020/12/09 03:57:13;;;;;;;49.70;33.80;;;5.10;99.90;;;;;;5101420;28;20333;-56
2020/12/09 03:59:38;;;;;;;45.23;31.73;;;4.90;99.90;;;;;;5081643;28;20178;-52
2020/12/09 04:02:04;;;;;;;41.73;30.70;;;5.10;99.90;;;;;;5082019;28;20189;-56
2020/12/09 04:04:29;;;;;;;48.70;35.00;;;5.20;99.90;;;;;;5079850;28;20539;-56
2020/12/09 04:06:55;;;;;;;48.90;34.27;;;5.10;99.90;;;;;;5080493;28;20201;-56
2020/12/09 04:09:21;;;;;;;44.80;32.10;;;5.00;99.90;;;;;;5079425;28;20174;-54
2020/12/09 04:11:46;;;;;;;52.83;33.63;;;5.00;99.90;;;;;;5079708;28;20256;-53
2020/12/09 04:14:12;;;;;;;45.13;34.47;;;5.10;99.90;;;;;;5079994;28;20688;-55
2020/12/09 04:16:37;;;;;;;46.53;32.43;;;5.10;99.90;;;;;;5081506;28;20186;-56
2020/12/09 04:19:03;;;;;;;45.70;34.37;;;5.10;99.90;;;;;;5081199;28;20170;-56
2020/12/09 04:21:28;;;;;;;49.30;34.33;;;4.80;99.90;;;;;;5083744;28;20162;-55
2020/12/09 04:23:54;;;;;;;52.23;34.97;;;4.80;99.90;;;;;;5102350;28;20225;-57
2020/12/09 04:26:19;;;;;;;49.90;34.43;;;4.70;99.90;;;;;;5102516;28;20188;-57
2020/12/09 04:28:45;;;;;;;50.57;34.37;;;4.60;99.90;;;;;;5084052;28;20194;-57
2020/12/09 04:31:11;;;;;;;49.97;34.20;;;4.60;99.90;;;;;;5079457;28;20217;-57
2020/12/09 04:33:37;;;;;;;51.10;34.53;;;4.50;99.90;;;;;;5079026;28;20220;-57
2020/12/09 04:36:04;;;;;;;51.60;33.63;;;4.50;99.90;;;;;;5081716;28;20182;-57
2020/12/09 04:38:30;;;;;;;47.93;31.50;;;4.40;99.90;;;;;;5084317;28;20445;-57
2020/12/09 04:40:56;;;;;;;48.23;31.80;;;4.60;99.90;;;;;;5081966;28;20535;-57
2020/12/09 04:43:21;;;;;;;53.00;35.13;;;4.70;99.90;;;;;;5080934;28;20936;-57
2020/12/09 04:45:47;;;;;;;48.87;32.80;;;4.90;99.90;;;;;;5081974;28;20174;-57
2020/12/09 04:48:14;;;;;;;50.27;33.70;;;4.70;99.90;;;;;;5080615;28;20669;-53
2020/12/09 04:51:06;;;;;;;42.90;30.63;;;4.60;99.90;;;;;;5080020;28;20177;-53
2020/12/09 04:53:32;;;;;;;57.73;36.37;;;4.80;99.90;;;;;;5079832;28;20392;-54
2020/12/09 04:55:59;;;;;;;51.53;34.00;;;4.80;99.90;;;;;;5078941;28;20400;-55
2020/12/09 04:58:48;;;;;;;55.00;35.70;;;4.90;99.90;;;;;;5078340;28;20248;-53
2020/12/09 05:01:15;;;;;;;52.13;34.30;;;4.90;99.90;;;;;;5079342;28;20884;-54
2020/12/09 05:03:46;;;;;;;45.90;32.57;;;4.90;99.90;;;;;;5079075;28;20417;-52
2020/12/09 05:06:14;;;;;;;46.53;33.23;;;4.90;99.90;;;;;;5077570;28;20436;-52
2020/12/09 05:08:52;;;;;;;44.47;31.50;;;5.10;99.90;;;;;;5089976;28;20456;-55
2020/12/09 05:11:21;;;;;;;49.93;32.40;;;5.20;99.90;;;;;;5079520;28;20445;-53
2020/12/09 05:13:51;;;;;;;44.67;29.17;;;5.30;99.90;;;;;;5077676;28;20432;-56
2020/12/09 05:16:19;;;;;;;41.80;31.40;;;5.30;99.90;;;;;;5080390;28;20951;-54
2020/12/09 05:18:45;;;;;;;41.07;30.00;;;5.10;99.90;;;;;;5078428;28;20422;-53
2020/12/09 05:21:20;;;;;;;53.03;35.17;;;5.20;99.90;;;;;;5079206;28;20436;-57
2020/12/09 05:23:49;;;;;;;39.87;30.03;;;5.10;99.90;;;;;;5078687;28;20176;-56
2020/12/09 05:26:23;;;;;;;42.77;31.17;;;5.00;99.90;;;;;;5079205;28;20431;-54
2020/12/09 05:29:06;;;;;;;49.90;34.17;;;5.10;99.90;;;;;;5078907;28;20446;-55
2020/12/09 05:31:32;;;;;;;51.10;33.57;;;5.10;99.90;;;;;;5079351;28;20376;-52
2020/12/09 05:33:57;;;;;;;43.00;28.87;;;5.10;99.90;;;;;;5078272;28;20974;-51
2020/12/09 05:36:26;;;;;;;43.63;31.83;;;5.10;99.90;;;;;;5078872;28;20182;-55
2020/12/09 05:39:05;;;;;;;43.70;30.67;;;5.20;99.90;;;;;;5078842;28;20249;-55
2020/12/09 05:41:34;;;;;;;45.10;29.20;;;5.30;99.90;;;;;;5079658;28;20766;-54
2020/12/09 05:44:01;;;;;;;42.43;30.30;;;5.30;99.90;;;;;;5078320;28;20478;-58
2020/12/09 05:46:28;;;;;;;45.60;31.83;;;5.20;99.90;;;;;;5077024;28;20420;-58
2020/12/09 05:48:54;;;;;;;41.27;29.90;;;5.00;99.90;;;;;;5091298;28;20451;-57
2020/12/09 05:51:19;;;;;;;41.50;30.33;;;5.10;99.90;;;;;;5086422;28;20408;-58
2020/12/09 05:53:47;;;;;;;46.13;32.20;;;5.30;99.90;;;;;;5077410;28;20416;-57
2020/12/09 05:56:26;;;;;;;39.43;29.13;;;5.50;99.90;;;;;;5102112;28;20212;-56
2020/12/09 05:58:52;;;;;;;43.03;27.47;;;5.10;99.90;;;;;;5098970;28;20392;-56
2020/12/09 06:01:26;;;;;;;43.23;29.07;;;5.00;99.90;;;;;;5097719;28;20737;-56
2020/12/09 06:03:56;;;;;;;38.10;27.87;;;5.00;99.90;;;;;;5098136;28;20184;-58
2020/12/09 06:06:27;;;;;;;35.57;26.33;;;4.90;99.90;;;;;;5098045;28;20439;-56
2020/12/09 06:08:54;;;;;;;37.20;27.67;;;4.70;99.90;;;;;;5097475;28;20482;-58
2020/12/09 06:11:21;;;;;;;49.00;33.37;;;4.80;99.90;;;;;;5098174;28;20391;-55
2020/12/09 06:13:47;;;;;;;46.97;34.33;;;4.80;99.90;;;;;;5098930;28;20411;-56
2020/12/09 06:16:13;;;;;;;40.60;29.40;;;5.00;99.90;;;;;;5098240;28;20435;-57
2020/12/09 06:18:43;;;;;;;39.00;27.83;;;4.90;99.90;;;;;;5088683;28;20173;-56
2020/12/09 06:21:09;;;;;;;43.13;30.97;;;4.90;99.90;;;;;;5077691;28;20848;-55
2020/12/09 06:23:34;;;;;;;44.13;31.40;;;4.90;99.90;;;;;;5078196;28;20407;-55
2020/12/09 06:26:02;;;;;;;38.17;28.23;;;5.00;99.90;;;;;;5078833;28;20249;-57
2020/12/09 06:28:31;;;;;;;41.13;27.93;;;5.00;99.90;;;;;;5076691;28;20213;-57
2020/12/09 06:30:58;;;;;;;40.33;29.23;;;4.80;99.90;;;;;;5078583;28;20400;-58
2020/12/09 06:33:28;;;;;;;34.17;26.63;;;4.90;99.90;;;;;;5077952;28;20416;-57
2020/12/09 06:36:13;;;;;;;38.37;28.43;;;5.10;99.90;;;;;;5077429;28;20457;-57
2020/12/09 06:38:40;;;;;;;38.80;29.30;;;5.10;99.90;;;;;;5078003;28;20434;-53
2020/12/09 06:41:05;;;;;;;41.43;29.37;;;5.00;99.90;;;;;;5078721;28;20507;-56
2020/12/09 06:43:31;;;;;;;42.20;30.90;;;5.10;99.90;;;;;;5076894;28;20535;-57
2020/12/09 06:45:58;;;;;;;37.80;27.57;;;5.00;99.90;;;;;;5078172;28;20174;-58
2020/12/09 06:48:24;;;;;;;34.67;26.13;;;4.80;99.90;;;;;;5077113;28;20573;-56
2020/12/09 06:50:51;;;;;;;41.17;29.47;;;4.60;99.90;;;;;;5077639;28;20403;-56
2020/12/09 06:53:18;;;;;;;36.20;26.67;;;4.60;99.90;;;;;;5076592;28;20470;-54
2020/12/09 06:55:44;;;;;;;34.77;26.17;;;4.80;99.90;;;;;;5078099;28;20410;-57
2020/12/09 06:58:27;;;;;;;33.87;25.27;;;4.90;99.90;;;;;;5076140;28;20462;-57
2020/12/09 07:01:05;;;;;;;35.43;25.13;;;4.70;99.90;;;;;;5077464;28;20392;-57
2020/12/09 07:03:39;;;;;;;39.00;27.87;;;5.00;99.90;;;;;;5076302;28;20458;-54
2020/12/09 07:06:16;;;;;;;46.90;32.00;;;4.90;99.90;;;;;;5081699;28;20431;-56
2020/12/09 07:08:46;;;;;;;36.80;28.10;;;4.80;99.90;;;;;;5079703;28;20455;-57
2020/12/09 07:11:11;;;;;;;42.30;29.87;;;4.90;99.90;;;;;;5078335;28;20420;-56
2020/12/09 07:13:37;;;;;;;36.07;25.67;;;4.90;99.90;;;;;;5079738;28;20852;-57
2020/12/09 07:16:03;;;;;;;34.70;25.90;;;5.10;99.90;;;;;;5080237;28;20190;-56
2020/12/09 07:18:29;;;;;;;35.33;27.37;;;5.00;99.90;;;;;;5080059;28;20174;-56
2020/12/09 07:20:58;;;;;;;39.77;28.67;;;5.10;99.90;;;;;;5081159;28;20463;-58
2020/12/09 07:23:23;;;;;;;34.83;25.93;;;5.10;99.90;;;;;;5081639;28;20181;-58
2020/12/09 07:25:49;;;;;;;34.73;25.10;;;5.30;99.90;;;;;;5081224;28;20435;-57
2020/12/09 07:28:14;;;;;;;41.00;31.33;;;5.40;99.90;;;;;;5081649;28;20668;-53
2020/12/09 07:30:40;;;;;;;41.63;29.73;;;5.40;99.90;;;;;;5080354;28;20170;-57
2020/12/09 07:33:06;;;;;;;39.03;28.43;;;5.40;99.90;;;;;;5081690;28;20634;-55
2020/12/09 07:35:31;;;;;;;40.67;29.57;;;5.30;99.90;;;;;;5080353;28;20197;-57
2020/12/09 07:37:59;;;;;;;40.67;30.50;;;5.20;99.90;;;;;;5079167;28;20720;-58
2020/12/09 07:40:27;;;;;;;40.03;29.50;;;5.20;99.90;;;;;;5079783;28;20162;-58
2020/12/09 07:43:08;;;;;;;31.93;25.07;;;5.20;99.90;;;;;;5080882;28;20486;-57
2020/12/09 07:45:41;;;;;;;40.07;30.40;;;5.40;99.90;;;;;;5079710;28;20896;-58
2020/12/09 07:48:10;;;;;;;42.73;28.70;;;5.50;99.90;;;;;;5079596;28;20530;-58
2020/12/09 07:50:37;;;;;;;37.47;26.93;;;5.60;99.90;;;;;;5079753;28;20412;-56
2020/12/09 07:53:04;;;;;;;43.90;30.67;;;5.60;99.90;;;;;;5079117;28;20404;-57
2020/12/09 07:55:32;;;;;;;37.30;28.17;;;5.60;99.90;;;;;;5082099;28;20768;-57
2020/12/09 07:58:07;;;;;;;37.73;27.13;;;5.70;99.90;;;;;;5101986;28;20544;-53
2020/12/09 08:00:40;;;;;;;37.30;29.60;;;5.70;99.90;;;;;;5100681;28;20413;-57
2020/12/09 08:03:16;;;;;;;42.57;30.87;;;5.60;99.90;;;;;;5089681;28;20503;-56
2020/12/09 08:05:42;;;;;;;44.57;33.37;;;5.60;99.90;;;;;;5079663;28;20498;-53
2020/12/09 08:08:12;;;;;;;43.77;32.30;;;5.40;99.90;;;;;;5080460;28;20514;-54
2020/12/09 08:10:39;;;;;;;41.93;29.60;;;5.40;99.90;;;;;;5080995;28;20147;-56
2020/12/09 08:13:14;;;;;;;39.00;28.10;;;5.20;99.90;;;;;;5079249;28;20407;-57
2020/12/09 08:15:44;;;;;;;38.50;29.23;;;5.40;99.90;;;;;;5077437;28;20384;-57
2020/12/09 08:18:22;;;;;;;38.73;28.83;;;5.50;99.90;;;;;;5078162;28;20926;-54
2020/12/09 08:20:49;;;;;;;41.87;29.07;;;5.40;99.90;;;;;;5078547;28;20451;-56
2020/12/09 08:23:15;;;;;;;46.53;35.33;;;5.40;99.90;;;;;;5079485;28;20426;-54
2020/12/09 08:25:50;;;;;;;44.23;31.90;;;5.40;99.90;;;;;;5078385;28;20470;-53
2020/12/09 08:28:23;;;;;;;41.97;29.20;;;5.50;99.90;;;;;;5078523;28;20459;-54
2020/12/09 08:30:49;;;;;;;36.50;27.83;;;5.40;99.90;;;;;;5079157;28;20419;-58
2020/12/09 08:33:19;;;;;;;46.43;34.17;;;5.40;99.90;;;;;;5078601;28;20444;-58
2020/12/09 08:35:51;;;;;;;46.80;33.30;;;5.40;99.90;;;;;;5079501;28;20472;-53
2020/12/09 08:38:43;;;;;;;48.77;33.47;;;5.30;99.90;;;;;;5078444;28;20451;-58
2020/12/09 08:41:14;;;;;;;44.03;31.53;;;5.30;99.90;;;;;;5083552;28;20433;-58
2020/12/09 08:43:43;;;;;;;40.73;31.03;;;5.40;99.90;;;;;;5082232;28;20404;-57
2020/12/09 08:46:10;;;;;;;40.40;29.03;;;5.40;99.90;;;;;;5078643;28;20432;-58
2020/12/09 08:48:37;;;;;;;47.07;33.20;;;5.20;99.90;;;;;;5078005;28;20456;-57
2020/12/09 08:51:03;;;;;;;43.90;30.83;;;5.10;99.90;;;;;;5078290;28;20433;-58
2020/12/09 08:53:29;;;;;;;45.60;31.60;;;5.10;99.90;;;;;;5078689;28;20400;-58
2020/12/09 08:55:54;;;;;;;45.40;33.63;;;4.90;99.90;;;;;;5078841;28;20419;-57
2020/12/09 08:58:20;;;;;;;38.17;28.67;;;4.80;99.90;;;;;;5077873;28;20182;-57
2020/12/09 09:00:46;;;;;;;43.80;30.73;;;4.90;99.90;;;;;;5076033;28;20251;-55
2020/12/09 09:03:16;;;;;;;42.10;30.30;;;4.80;99.90;;;;;;5077305;28;20280;-55
2020/12/09 09:05:45;;;;;;;37.43;28.93;;;4.80;99.90;;;;;;5077520;28;20385;-57
2020/12/09 09:08:11;;;;;;;40.90;30.20;;;4.70;99.90;;;;;;5077575;28;20943;-57
2020/12/09 09:10:37;;;;;;;40.83;28.57;;;4.80;99.90;;;;;;5077080;28;20602;-57
2020/12/09 09:13:04;;;;;;;44.23;33.07;;;5.00;99.90;;;;;;5077131;28;20601;-58
2020/12/09 09:15:30;;;;;;;48.40;34.47;;;5.00;99.90;;;;;;5077675;28;20412;-54
2020/12/09 09:17:56;;;;;;;46.30;32.00;;;4.80;99.90;;;;;;5077062;28;20578;-54
2020/12/09 09:20:21;;;;;;;43.77;30.73;;;4.80;99.90;;;;;;5077920;28;20428;-54
2020/12/09 09:22:47;;;;;;;44.10;32.77;;;4.90;99.90;;;;;;5079093;28;20459;-55
2020/12/09 09:25:13;;;;;;;52.40;34.10;;;4.90;99.90;;;;;;5080069;28;20177;-56
2020/12/09 09:27:39;;;;;;;47.97;35.40;;;5.10;99.90;;;;;;5078440;28;20205;-57
2020/12/09 09:30:06;;;;;;;48.70;35.70;;;5.10;99.90;;;;;;5078771;28;20196;-54
2020/12/09 09:32:32;;;;;;;45.20;32.93;;;4.90;99.90;;;;;;5078975;28;20537;-55
2020/12/09 09:34:58;;;;;;;45.07;32.10;;;4.80;99.90;;;;;;5078926;28;20408;-57
2020/12/09 09:37:24;;;;;;;45.30;32.47;;;4.80;99.90;;;;;;5078266;28;20190;-56
2020/12/09 09:39:50;;;;;;;40.80;30.20;;;4.80;99.90;;;;;;5076956;28;20178;-52
2020/12/09 09:42:17;;;;;;;59.13;38.00;;;4.80;99.90;;;;;;5083893;28;20950;-55
2020/12/09 09:44:46;;;;;;;52.17;37.27;;;4.60;99.90;;;;;;5098098;28;20776;-53
2020/12/09 09:47:12;;;;;;;51.87;34.67;;;4.70;99.90;;;;;;5098727;28;20427;-57
2020/12/09 09:49:38;;;;;;;47.80;35.93;;;4.70;99.90;;;;;;5101218;28;20446;-55
2020/12/09 09:52:04;;;;;;;52.17;37.00;;;4.90;99.90;;;;;;5098475;28;20509;-51
2020/12/09 09:54:30;;;;;;;51.70;36.50;;;5.10;99.90;;;;;;5098528;28;20407;-58
2020/12/09 09:56:55;;;;;;;42.87;31.40;;;5.10;99.90;;;;;;5098315;28;20649;-50
2020/12/09 09:59:21;;;;;;;50.37;34.93;;;5.00;99.90;;;;;;5098797;28;20165;-55
2020/12/09 10:01:47;;;;;;;53.20;32.87;;;5.00;99.90;;;;;;5098533;28;20692;-57
2020/12/09 10:04:12;;;;;;;46.93;33.73;;;5.10;99.90;;;;;;5098991;28;20161;-53
2020/12/09 10:06:38;;;;;;;46.60;34.10;;;5.10;99.90;;;;;;5098685;28;20174;-53
2020/12/09 10:09:06;;;;;;;48.70;34.37;;;5.00;99.90;;;;;;5099092;28;20217;-56
2020/12/09 10:11:35;;;;;;;49.57;34.83;;;4.90;99.90;;;;;;5099145;28;20213;-54
2020/12/09 10:14:01;;;;;;;50.83;35.40;;;4.90;99.90;;;;;;5098374;28;20406;-50
2020/12/09 10:16:27;;;;;;;47.97;33.93;;;4.90;99.90;;;;;;5098956;28;20423;-51
2020/12/09 10:18:54;;;;;;;44.53;32.87;;;4.80;99.90;;;;;;5099212;28;20211;-49
2020/12/09 10:21:33;;;;;;;55.63;37.80;;;5.00;99.90;;;;;;5100034;28;20403;-46
2020/12/09 10:24:01;;;;;;;42.17;32.27;;;4.90;99.90;;;;;;5098281;28;20392;-56
2020/12/09 10:26:46;;;;;;;45.23;33.60;;;5.10;99.90;;;;;;5098307;28;20518;-54
2020/12/09 10:29:11;;;;;;;47.10;31.23;;;4.90;99.90;;;;;;5097795;28;20436;-53
2020/12/09 10:31:48;;;;;;;55.93;37.20;;;4.90;99.90;;;;;;5097767;28;20405;-50
2020/12/09 10:34:18;;;;;;;45.70;33.33;;;5.10;99.90;;;;;;5097457;28;20203;-53
2020/12/09 10:36:48;;;;;;;42.43;31.00;;;5.40;99.90;;;;;;5097599;28;20420;-50
2020/12/09 10:39:14;;;;;;;52.27;36.33;;;5.40;99.90;;;;;;5099218;28;20387;-52
2020/12/09 10:41:40;;;;;;;44.13;32.33;;;5.40;99.90;;;;;;5101521;28;20442;-51
2020/12/09 10:44:06;;;;;;;39.60;29.33;;;5.50;99.90;;;;;;5101938;28;20831;-48
2020/12/09 10:46:33;;;;;;;42.33;30.17;;;5.40;99.90;;;;;;5102147;28;20519;-48
2020/12/09 10:49:00;;;;;;;44.60;30.47;;;5.10;99.90;;;;;;5102757;28;20200;-49
2020/12/09 10:51:27;;;;;;;40.83;31.30;;;5.00;99.90;;;;;;5102227;28;20403;-53
2020/12/09 10:53:53;;;;;;;48.93;34.30;;;5.10;99.90;;;;;;5101694;28;20410;-50
2020/12/09 10:56:31;;;;;;;47.13;33.53;;;5.00;99.90;;;;;;5102281;28;20419;-51
2020/12/09 10:58:58;;;;;;;46.63;32.57;;;5.00;99.90;;;;;;5102612;28;20463;-49
2020/12/09 11:01:25;;;;;;;45.23;32.73;;;4.90;99.90;;;;;;5102953;28;20403;-52
2020/12/09 11:03:53;;;;;;;50.87;35.30;;;5.00;99.90;;;;;;5102982;28;20412;-54
2020/12/09 11:06:29;;;;;;;49.83;35.10;;;5.00;99.90;;;;;;5102916;28;20434;-52
2020/12/09 11:08:56;;;;;;;42.10;30.70;;;4.90;99.90;;;;;;5103131;28;20950;-54
2020/12/09 11:11:23;;;;;;;41.10;30.23;;;4.80;99.90;;;;;;5103460;28;20494;-54
2020/12/09 11:13:49;;;;;;;46.60;33.37;;;4.60;99.90;;;;;;5102946;28;20404;-53
2020/12/09 11:16:19;;;;;;;52.03;35.37;;;4.60;99.90;;;;;;5102728;28;20419;-54
2020/12/09 11:18:45;;;;;;;43.73;31.07;;;4.80;99.90;;;;;;5100226;28;20408;-55
2020/12/09 11:21:16;;;;;;;46.03;34.17;;;5.00;99.90;;;;;;5101304;28;20522;-55
2020/12/09 11:23:42;;;;;;;48.53;35.90;;;5.10;99.90;;;;;;5101177;28;20796;-54
2020/12/09 11:26:08;;;;;;;43.83;32.00;;;5.20;99.90;;;;;;5101185;28;20415;-55
2020/12/09 11:28:34;;;;;;;43.30;31.53;;;5.00;99.90;;;;;;5100554;28;20571;-54
2020/12/09 11:30:59;;;;;;;44.93;33.90;;;5.00;99.90;;;;;;5098124;28;20205;-56
2020/12/09 11:33:25;;;;;;;49.60;33.80;;;5.10;99.90;;;;;;5100571;28;20407;-55
2020/12/09 11:35:51;;;;;;;52.20;34.50;;;4.90;99.90;;;;;;5100542;28;20238;-54
2020/12/09 11:38:16;;;;;;;48.87;34.77;;;5.10;99.90;;;;;;5100107;28;20653;-55
2020/12/09 11:40:42;;;;;;;49.33;33.73;;;5.00;99.90;;;;;;5100238;28;20234;-52
2020/12/09 11:43:08;;;;;;;47.33;33.53;;;5.00;99.90;;;;;;5099880;28;20173;-56
2020/12/09 11:45:35;;;;;;;50.60;34.37;;;5.00;99.90;;;;;;5100974;28;20450;-56
2020/12/09 11:48:01;;;;;;;50.27;34.00;;;5.00;99.90;;;;;;5103058;28;20261;-52
2020/12/09 11:50:26;;;;;;;44.83;31.23;;;4.90;99.90;;;;;;5099343;28;20407;-55
2020/12/09 11:52:52;;;;;;;43.63;31.40;;;5.00;99.90;;;;;;5100204;28;20408;-55
2020/12/09 11:55:18;;;;;;;48.80;32.93;;;5.00;99.90;;;;;;5098961;28;20260;-53
2020/12/09 11:57:43;;;;;;;49.73;35.57;;;5.20;99.90;;;;;;5098253;28;20324;-53
2020/12/09 12:00:09;;;;;;;47.60;33.20;;;5.10;99.90;;;;;;5099645;28;20170;-54
2020/12/09 12:02:34;;;;;;;46.80;32.73;;;5.10;99.90;;;;;;5099677;28;20667;-52
2020/12/09 12:05:01;;;;;;;47.10;31.70;;;4.80;99.90;;;;;;5101023;28;20185;-53
2020/12/09 12:07:27;;;;;;;52.97;36.47;;;4.70;99.90;;;;;;5100281;28;20189;-53
2020/12/09 12:09:53;;;;;;;49.53;34.53;;;4.70;99.90;;;;;;5101216;28;20399;-53
2020/12/09 12:12:18;;;;;;;49.53;34.77;;;4.90;99.90;;;;;;5100392;28;20169;-57
2020/12/09 12:14:44;;;;;;;61.23;39.70;;;5.00;99.90;;;;;;5100601;28;20169;-56
2020/12/09 12:17:11;;;;;;;52.90;35.43;;;4.90;99.90;;;;;;5100751;28;20331;-52
2020/12/09 12:19:37;;;;;;;53.23;35.23;;;5.00;99.90;;;;;;5100115;28;20172;-55
2020/12/09 12:22:03;;;;;;;46.43;32.10;;;5.10;99.90;;;;;;5101022;28;20768;-54
2020/12/09 12:24:29;;;;;;;49.73;34.10;;;5.00;99.90;;;;;;5099674;28;20411;-57
2020/12/09 12:26:55;;;;;;;52.63;33.80;;;4.90;99.90;;;;;;5099767;28;20506;-54
2020/12/09 12:29:20;;;;;;;59.93;37.27;;;5.00;99.90;;;;;;5099193;28;20205;-58
2020/12/09 12:31:46;;;;;;;51.10;34.03;;;5.00;99.90;;;;;;5100615;28;20169;-57
2020/12/09 12:34:12;;;;;;;49.10;33.60;;;5.10;99.90;;;;;;5093295;28;20180;-58
2020/12/09 12:36:40;;;;;;;50.13;33.70;;;5.00;99.90;;;;;;5085055;28;20198;-58